Roy Baker — WDC2698 — position and weather

sailwx.info

Track history (hours):
 
Tides and Currents Weather Stations Pressure Air Temp Water Temp Dewpoint Dewpoint Depression Visibility Wind Speed Wind Dir Waves Ship Positions

Roy Baker

Owner: Kirby Inland Marine LP, Houston, TX. More information available from US FCC via Universal Licensing System and Coast Guard Vessel Documentation Center.

Last reported at 2016-Feb-05 11:28 UTC. Time now 2016-Feb-12 03:44 UTC.
Position N 29°34' W 090°33'.

Length 24 m; draft 2.3 m.

Type: Towing. MMSI: 366996540.

Date/timePositionNaut miles runAvg speedWind from/ knotsBaromVisibWave heightAir tempDewpointWater temp
2016-Feb-05 11:28N 29°34' W 090°33'4 4.7
2016-Feb-05 10:33N 29°35' W 090°38'4 4.2
2016-Feb-05 09:34N 29°35' W 090°43'5 5.2
2016-Feb-05 08:33N 29°32' W 090°47'124 3.4
2016-Feb-03 20:05N 29°56' W 093°07'3 4.7
2016-Feb-03 19:33N 29°57' W 093°10'5 4.9
2016-Feb-03 18:33N 30°00' W 093°14'3 3.3
2016-Feb-03 17:34N 30°03' W 093°16'3 3.2
2016-Feb-03 16:34N 30°06' W 093°18'0 0.5
2016-Feb-03 15:33N 30°06' W 093°18'0 0.1
2016-Feb-03 14:34N 30°06' W 093°18'0 0.4
2016-Feb-03 13:34N 30°06' W 093°19'0 0.0
2016-Feb-03 12:34N 30°06' W 093°19'0 0.0
2016-Feb-03 11:34N 30°06' W 093°19'3 2.7
2016-Feb-03 10:33N 30°04' W 093°21'4 4.2
2016-Feb-03 09:34N 30°04' W 093°26'6 5.8
2016-Feb-03 08:34N 30°04' W 093°32'6 6.0
2016-Feb-03 07:34N 30°04' W 093°39'6 5.7
2016-Feb-03 06:33N 30°01' W 093°45'6 6.1
2016-Feb-03 05:33N 29°58' W 093°51'7 6.6
2016-Feb-03 04:29N 29°52' W 093°56'5 5.3
2016-Feb-03 03:33N 29°49' W 093°60'5 5.0
2016-Feb-03 02:33N 29°45' W 094°04'5 5.0
2016-Feb-03 01:33N 29°42' W 094°09'4 4.2
2016-Feb-03 00:33N 29°40' W 094°13'4 4.1
2016-Feb-02 23:33N 29°38' W 094°17'5 4.9
2016-Feb-02 22:30N 29°36' W 094°22'  
Track history (hours):
 
Tides and Currents Weather Stations Pressure Air Temp Water Temp Dewpoint Dewpoint Depression Visibility Wind Speed Wind Dir Waves Ship Positions

Roy Baker

Owner: Kirby Inland Marine LP, Houston, TX. More information available from US FCC via Universal Licensing System and Coast Guard Vessel Documentation Center.

Last reported at 2016-Feb-05 11:28 UTC. Time now 2016-Feb-12 03:44 UTC.
Position N 29°34' W 090°33'.

Length 24 m; draft 2.3 m.

Type: Towing. MMSI: 366996540.

Date/timePositionNaut miles runAvg speedWind from/ knotsBaromVisibWave heightAir tempDewpointWater temp
2016-Feb-05 11:28N 29°34' W 090°33'4 4.7
2016-Feb-05 10:33N 29°35' W 090°38'4 4.2
2016-Feb-05 09:34N 29°35' W 090°43'5 5.2
2016-Feb-05 08:33N 29°32' W 090°47'124 3.4
2016-Feb-03 20:05N 29°56' W 093°07'3 4.7
2016-Feb-03 19:33N 29°57' W 093°10'5 4.9
2016-Feb-03 18:33N 30°00' W 093°14'3 3.3
2016-Feb-03 17:34N 30°03' W 093°16'3 3.2
2016-Feb-03 16:34N 30°06' W 093°18'0 0.5
2016-Feb-03 15:33N 30°06' W 093°18'0 0.1
2016-Feb-03 14:34N 30°06' W 093°18'0 0.4
2016-Feb-03 13:34N 30°06' W 093°19'0 0.0
2016-Feb-03 12:34N 30°06' W 093°19'0 0.0
2016-Feb-03 11:34N 30°06' W 093°19'3 2.7
2016-Feb-03 10:33N 30°04' W 093°21'4 4.2
2016-Feb-03 09:34N 30°04' W 093°26'6 5.8
2016-Feb-03 08:34N 30°04' W 093°32'6 6.0
2016-Feb-03 07:34N 30°04' W 093°39'6 5.7
2016-Feb-03 06:33N 30°01' W 093°45'6 6.1
2016-Feb-03 05:33N 29°58' W 093°51'7 6.6
2016-Feb-03 04:29N 29°52' W 093°56'5 5.3
2016-Feb-03 03:33N 29°49' W 093°60'5 5.0
2016-Feb-03 02:33N 29°45' W 094°04'5 5.0
2016-Feb-03 01:33N 29°42' W 094°09'4 4.2
2016-Feb-03 00:33N 29°40' W 094°13'4 4.1
2016-Feb-02 23:33N 29°38' W 094°17'5 4.9
2016-Feb-02 22:30N 29°36' W 094°22'  

Dump ship's entire track history